Terminal Aerodrome Forecast
Issued by NWS

Home | Current Version | Previous Version | Text Only | Print | Product List | Glossary On
Versions: 1 2 3 4 5 6 7 8 9 10 11 12 13 14 15 16 17
000
FTUS41 KBOX 132338
TAFBED
TAF
KBED 132338Z 1400/1424 27012G27KT P6SM SKC
     FM140500 26008KT P6SM BKN100
     FM140900 24006KT P6SM VCSH OVC060
     FM141100 27009KT 3SM -SN OVC040
     FM141500 29010KT P6SM VCSH BKN060
     FM141700 29010G17KT P6SM SCT060=

USA.gov is the U.S. government's official web portal to all federal, state and local government web resources and services.